Malaysia Virtual Airlines Airport Information Service

Ninoy Aquino International Airport (NAIA)

ICAO: RPLL Country: Philippines
Latitude: 14.505 Longitude: 121.004
Latest Arrival : MH704 (WMKK-RPLL) Latest Departure : MH805 (RPLL-WMKK)


WX CaptureLIVE
Data provided by noaa.gov | Fetched at 17:22:32

METAR : RPLL 261600Z 23007KT 200V260 9999 FEW025 SCT080 28/25 Q1004 NOSIG RMK A2965

TAF : RPLL 261100Z 2612/2718 26015KT 9999 SCT025 BKN100 TX30/2706Z TN27/2620Z TEMPO 2612/2618 26013G25KT VCSH FEW022CB FEW023 BKN090 TEMPO 2703/2709 26018G31KT -TSRA FEW020CB SCT022 OVC080


Runway Data for RPLL
Data provided by openaviationdata.com

Runway ID Mag Var Hdg Length Elevation Surface ILS Freq ILS Id ILS Slope
6 -1 61° 11196 ft 22 ft Concrete 109.1 IML 3
13 -1 135° 6568 ft 22 ft Concrete -- -- --
24 -1 241° 11196 ft 22 ft Concrete 109.9 IMA 3
31 -1 315° 6568 ft 22 ft Concrete -- -- --

Ninoy Aquino International Airport (NAIA), Philippines
Use only for reference purposes



Not for navigational purposes.